sensor_id;sensor_type;location;lat;lon;timestamp;pressure;altitude;pressure_sealevel;temperature;humidity
45275;BME280;31019;43.780;25.948;2023-08-17T00:01:32;101142.75;;;18.33;100.00
45275;BME280;31019;43.780;25.948;2023-08-17T00:03:59;101142.56;;;18.39;100.00
45275;BME280;31019;43.780;25.948;2023-08-17T00:06:26;101133.97;;;18.59;100.00
45275;BME280;31019;43.780;25.948;2023-08-17T00:08:53;101136.78;;;18.47;100.00
45275;BME280;31019;43.780;25.948;2023-08-17T00:11:20;101122.75;;;18.45;100.00
45275;BME280;31019;43.780;25.948;2023-08-17T00:13:47;101127.22;;;18.18;100.00
45275;BME280;31019;43.780;25.948;2023-08-17T00:16:15;101130.22;;;18.60;100.00
45275;BME280;31019;43.780;25.948;2023-08-17T00:18:43;101130.13;;;18.94;100.00
45275;BME280;31019;43.780;25.948;2023-08-17T00:21:10;101124.41;;;18.85;100.00
45275;BME280;31019;43.780;25.948;2023-08-17T00:23:37;101131.50;;;18.96;100.00
45275;BME280;31019;43.780;25.948;2023-08-17T00:26:03;101128.22;;;18.72;100.00
45275;BME280;31019;43.780;25.948;2023-08-17T00:28:30;101129.78;;;18.68;100.00
45275;BME280;31019;43.780;25.948;2023-08-17T00:30:57;101112.88;;;18.90;100.00
45275;BME280;31019;43.780;25.948;2023-08-17T00:33:27;101126.91;;;18.53;100.00
45275;BME280;31019;43.780;25.948;2023-08-17T00:35:54;101130.41;;;18.53;100.00
45275;BME280;31019;43.780;25.948;2023-08-17T00:38:21;101129.09;;;18.56;100.00
45275;BME280;31019;43.780;25.948;2023-08-17T00:40:48;101121.41;;;18.43;100.00
45275;BME280;31019;43.780;25.948;2023-08-17T00:43:15;101127.03;;;18.63;100.00
45275;BME280;31019;43.780;25.948;2023-08-17T00:45:44;101132.00;;;18.71;100.00
45275;BME280;31019;43.780;25.948;2023-08-17T00:48:13;101126.34;;;18.51;100.00
45275;BME280;31019;43.780;25.948;2023-08-17T00:50:43;101122.03;;;18.50;100.00
45275;BME280;31019;43.780;25.948;2023-08-17T00:53:13;101126.91;;;18.53;100.00
45275;BME280;31019;43.780;25.948;2023-08-17T00:55:42;101114.72;;;18.06;100.00
45275;BME280;31019;43.780;25.948;2023-08-17T00:58:09;101113.47;;;18.14;100.00
45275;BME280;31019;43.780;25.948;2023-08-17T01:00:36;101122.75;;;18.45;100.00
45275;BME280;31019;43.780;25.948;2023-08-17T01:03:03;101113.88;;;18.06;100.00
45275;BME280;31019;43.780;25.948;2023-08-17T01:05:30;101123.13;;;18.32;100.00
45275;BME280;31019;43.780;25.948;2023-08-17T01:08:00;101117.16;;;18.47;100.00
45275;BME280;31019;43.780;25.948;2023-08-17T01:10:30;101114.16;;;18.26;100.00
45275;BME280;31019;43.780;25.948;2023-08-17T01:13:17;101117.19;;;18.30;100.00
45275;BME280;31019;43.780;25.948;2023-08-17T01:15:50;101120.22;;;18.34;100.00
45275;BME280;31019;43.780;25.948;2023-08-17T01:18:23;101128.75;;;18.30;100.00
45275;BME280;31019;43.780;25.948;2023-08-17T01:20:52;101123.31;;;18.25;100.00
45275;BME280;31019;43.780;25.948;2023-08-17T01:23:21;101121.34;;;18.21;100.00
45275;BME280;31019;43.780;25.948;2023-08-17T01:25:48;101114.94;;;18.05;100.00
45275;BME280;31019;43.780;25.948;2023-08-17T01:28:15;101125.28;;;17.96;100.00
45275;BME280;31019;43.780;25.948;2023-08-17T01:30:47;101126.25;;;17.90;100.00
45275;BME280;31019;43.780;25.948;2023-08-17T01:33:20;101118.78;;;17.92;100.00
45275;BME280;31019;43.780;25.948;2023-08-17T01:35:55;101124.88;;;17.88;100.00
45275;BME280;31019;43.780;25.948;2023-08-17T01:38:29;101117.09;;;17.40;100.00
45275;BME280;31019;43.780;25.948;2023-08-17T01:40:57;101123.16;;;17.81;100.00
45275;BME280;31019;43.780;25.948;2023-08-17T01:43:25;101124.81;;;17.82;100.00
45275;BME280;31019;43.780;25.948;2023-08-17T01:45:52;101123.47;;;17.68;100.00
45275;BME280;31019;43.780;25.948;2023-08-17T01:48:19;101128.94;;;17.28;100.00
45275;BME280;31019;43.780;25.948;2023-08-17T01:50:46;101125.16;;;17.57;100.00
45275;BME280;31019;43.780;25.948;2023-08-17T01:53:13;101130.19;;;17.82;100.00
45275;BME280;31019;43.780;25.948;2023-08-17T01:55:41;101128.31;;;17.83;100.00
45275;BME280;31019;43.780;25.948;2023-08-17T01:58:08;101123.50;;;18.02;100.00
45275;BME280;31019;43.780;25.948;2023-08-17T02:00:35;101125.88;;;17.98;100.00
45275;BME280;31019;43.780;25.948;2023-08-17T02:03:02;101124.09;;;17.75;100.00
45275;BME280;31019;43.780;25.948;2023-08-17T02:05:29;101122.59;;;17.34;100.00
45275;BME280;31019;43.780;25.948;2023-08-17T02:07:55;101123.09;;;17.31;100.00
45275;BME280;31019;43.780;25.948;2023-08-17T02:10:22;101123.13;;;17.65;100.00
45275;BME280;31019;43.780;25.948;2023-08-17T02:12:51;101112.72;;;17.68;100.00
45275;BME280;31019;43.780;25.948;2023-08-17T02:15:18;101110.16;;;17.45;100.00
45275;BME280;31019;43.780;25.948;2023-08-17T02:17:45;101112.69;;;17.80;100.00
45275;BME280;31019;43.780;25.948;2023-08-17T02:20:11;101112.94;;;17.67;100.00
45275;BME280;31019;43.780;25.948;2023-08-17T02:22:39;101112.72;;;17.85;100.00
45275;BME280;31019;43.780;25.948;2023-08-17T02:25:07;101114.66;;;17.73;100.00
45275;BME280;31019;43.780;25.948;2023-08-17T02:27:34;101115.56;;;17.61;100.00
45275;BME280;31019;43.780;25.948;2023-08-17T02:30:04;101122.03;;;17.77;100.00
45275;BME280;31019;43.780;25.948;2023-08-17T02:32:30;101125.63;;;17.54;100.00
45275;BME280;31019;43.780;25.948;2023-08-17T02:34:57;101123.69;;;17.50;100.00
45275;BME280;31019;43.780;25.948;2023-08-17T02:37:24;101126.44;;;17.55;100.00
45275;BME280;31019;43.780;25.948;2023-08-17T02:39:51;101122.19;;;17.42;100.00
45275;BME280;31019;43.780;25.948;2023-08-17T02:42:18;101127.66;;;17.47;100.00
45275;BME280;31019;43.780;25.948;2023-08-17T02:44:45;101131.53;;;17.23;100.00
45275;BME280;31019;43.780;25.948;2023-08-17T02:47:13;101126.78;;;17.13;100.00
45275;BME280;31019;43.780;25.948;2023-08-17T02:49:40;101127.91;;;17.46;100.00
45275;BME280;31019;43.780;25.948;2023-08-17T02:52:07;101131.31;;;17.41;100.00
45275;BME280;31019;43.780;25.948;2023-08-17T02:54:34;101128.63;;;17.41;100.00
45275;BME280;31019;43.780;25.948;2023-08-17T02:57:00;101135.78;;;17.35;100.00
45275;BME280;31019;43.780;25.948;2023-08-17T02:59:27;101128.34;;;17.26;100.00
45275;BME280;31019;43.780;25.948;2023-08-17T03:01:54;101130.50;;;17.40;100.00
45275;BME280;31019;43.780;25.948;2023-08-17T03:04:23;101125.09;;;17.24;100.00
45275;BME280;31019;43.780;25.948;2023-08-17T03:06:50;101128.84;;;17.23;100.00
45275;BME280;31019;43.780;25.948;2023-08-17T03:09:20;101131.56;;;17.11;100.00
45275;BME280;31019;43.780;25.948;2023-08-17T03:11:49;101131.38;;;17.29;100.00
45275;BME280;31019;43.780;25.948;2023-08-17T03:14:19;101134.53;;;17.26;100.00
45275;BME280;31019;43.780;25.948;2023-08-17T03:16:45;101141.28;;;17.00;100.00
45275;BME280;31019;43.780;25.948;2023-08-17T03:19:12;101139.47;;;17.17;100.00
45275;BME280;31019;43.780;25.948;2023-08-17T03:21:40;101134.16;;;16.94;100.00
45275;BME280;31019;43.780;25.948;2023-08-17T03:24:07;101142.69;;;16.91;100.00
45275;BME280;31019;43.780;25.948;2023-08-17T03:26:34;101142.06;;;16.13;100.00
45275;BME280;31019;43.780;25.948;2023-08-17T03:29:01;101141.22;;;16.83;100.00
45275;BME280;31019;43.780;25.948;2023-08-17T03:31:28;101135.56;;;16.97;100.00
45275;BME280;31019;43.780;25.948;2023-08-17T03:33:55;101144.44;;;16.97;100.00
45275;BME280;31019;43.780;25.948;2023-08-17T03:36:22;101143.47;;;17.03;100.00
45275;BME280;31019;43.780;25.948;2023-08-17T03:38:50;101143.28;;;16.69;100.00
45275;BME280;31019;43.780;25.948;2023-08-17T03:41:17;101140.75;;;16.63;100.00
45275;BME280;31019;43.780;25.948;2023-08-17T03:43:44;101133.44;;;16.58;100.00
45275;BME280;31019;43.780;25.948;2023-08-17T03:46:12;101139.50;;;16.42;100.00
45275;BME280;31019;43.780;25.948;2023-08-17T03:48:39;101141.22;;;16.71;100.00
45275;BME280;31019;43.780;25.948;2023-08-17T03:51:07;101136.00;;;17.05;100.00
45275;BME280;31019;43.780;25.948;2023-08-17T03:53:34;101139.47;;;17.17;100.00
45275;BME280;31019;43.780;25.948;2023-08-17T03:56:02;101143.25;;;17.33;100.00
45275;BME280;31019;43.780;25.948;2023-08-17T03:58:29;101148.81;;;17.15;100.00
45275;BME280;31019;43.780;25.948;2023-08-17T04:01:00;101141.75;;;17.54;100.00
45275;BME280;31019;43.780;25.948;2023-08-17T04:03:27;101131.75;;;17.50;100.00
45275;BME280;31019;43.780;25.948;2023-08-17T04:05:54;101135.81;;;17.69;100.00
45275;BME280;31019;43.780;25.948;2023-08-17T04:08:21;101147.91;;;17.83;100.00
45275;BME280;31019;43.780;25.948;2023-08-17T04:10:48;101150.94;;;18.04;100.00
45275;BME280;31019;43.780;25.948;2023-08-17T04:13:16;101151.44;;;18.01;100.00
45275;BME280;31019;43.780;25.948;2023-08-17T04:15:43;101157.75;;;18.12;100.00
45275;BME280;31019;43.780;25.948;2023-08-17T04:18:10;101151.84;;;18.10;100.00
45275;BME280;31019;43.780;25.948;2023-08-17T04:20:36;101148.56;;;18.07;100.00
45275;BME280;31019;43.780;25.948;2023-08-17T04:23:03;101149.38;;;18.08;100.00
45275;BME280;31019;43.780;25.948;2023-08-17T04:25:30;101141.72;;;18.17;100.00
45275;BME280;31019;43.780;25.948;2023-08-17T04:27:57;101153.38;;;18.22;100.00
45275;BME280;31019;43.780;25.948;2023-08-17T04:30:25;101153.13;;;18.24;100.00
45275;BME280;31019;43.780;25.948;2023-08-17T04:32:52;101155.78;;;18.41;100.00
45275;BME280;31019;43.780;25.948;2023-08-17T04:35:19;101157.00;;;18.50;100.00
45275;BME280;31019;43.780;25.948;2023-08-17T04:37:46;101151.72;;;18.38;100.00
45275;BME280;31019;43.780;25.948;2023-08-17T04:40:14;101154.91;;;18.35;100.00
45275;BME280;31019;43.780;25.948;2023-08-17T04:42:41;101160.97;;;18.64;100.00
45275;BME280;31019;43.780;25.948;2023-08-17T04:45:08;101155.16;;;19.16;100.00
45275;BME280;31019;43.780;25.948;2023-08-17T04:47:36;101162.81;;;18.81;100.00
45275;BME280;31019;43.780;25.948;2023-08-17T04:50:04;101147.91;;;19.17;100.00
45275;BME280;31019;43.780;25.948;2023-08-17T04:52:31;101158.47;;;19.23;100.00
45275;BME280;31019;43.780;25.948;2023-08-17T04:54:58;101153.19;;;19.34;100.00
45275;BME280;31019;43.780;25.948;2023-08-17T04:57:25;101158.16;;;19.20;100.00
45275;BME280;31019;43.780;25.948;2023-08-17T04:59:53;101157.66;;;19.50;100.00
45275;BME280;31019;43.780;25.948;2023-08-17T05:02:20;101152.34;;;19.87;100.00
45275;BME280;31019;43.780;25.948;2023-08-17T05:04:48;101157.16;;;20.12;100.00
45275;BME280;31019;43.780;25.948;2023-08-17T05:07:15;101153.75;;;20.27;100.00
45275;BME280;31019;43.780;25.948;2023-08-17T05:09:42;101151.88;;;20.33;100.00
45275;BME280;31019;43.780;25.948;2023-08-17T05:12:09;101147.41;;;20.49;100.00
45275;BME280;31019;43.780;25.948;2023-08-17T05:14:36;101148.97;;;20.45;100.00
45275;BME280;31019;43.780;25.948;2023-08-17T05:17:03;101150.88;;;20.44;100.00
45275;BME280;31019;43.780;25.948;2023-08-17T05:19:30;101137.00;;;20.68;100.00
45275;BME280;31019;43.780;25.948;2023-08-17T05:21:58;101133.56;;;20.93;100.00
45275;BME280;31019;43.780;25.948;2023-08-17T05:24:25;101148.56;;;20.63;100.00
45275;BME280;31019;43.780;25.948;2023-08-17T05:26:53;101139.00;;;20.98;100.00
45275;BME280;31019;43.780;25.948;2023-08-17T05:29:20;101136.44;;;21.44;100.00
45275;BME280;31019;43.780;25.948;2023-08-17T05:31:47;101133.19;;;21.37;100.00
45275;BME280;31019;43.780;25.948;2023-08-17T05:34:14;101137.53;;;21.53;100.00
45275;BME280;31019;43.780;25.948;2023-08-17T05:36:42;101135.91;;;22.03;100.00
45275;BME280;31019;43.780;25.948;2023-08-17T05:39:10;101132.63;;;22.27;100.00
45275;BME280;31019;43.780;25.948;2023-08-17T05:41:37;101135.78;;;22.59;100.00
45275;BME280;31019;43.780;25.948;2023-08-17T05:44:04;101130.63;;;22.63;100.00
45275;BME280;31019;43.780;25.948;2023-08-17T05:46:32;101130.91;;;22.67;100.00
45275;BME280;31019;43.780;25.948;2023-08-17T05:48:59;101134.06;;;22.89;100.00
45275;BME280;31019;43.780;25.948;2023-08-17T05:51:26;101130.28;;;23.40;100.00
45275;BME280;31019;43.780;25.948;2023-08-17T05:53:53;101117.16;;;23.52;100.00
45275;BME280;31019;43.780;25.948;2023-08-17T05:56:21;101112.56;;;23.87;100.00
45275;BME280;31019;43.780;25.948;2023-08-17T05:58:48;101111.81;;;24.34;100.00
45275;BME280;31019;43.780;25.948;2023-08-17T06:01:15;101112.81;;;24.67;100.00
45275;BME280;31019;43.780;25.948;2023-08-17T06:03:42;101111.81;;;25.01;100.00
45275;BME280;31019;43.780;25.948;2023-08-17T06:06:09;101112.28;;;25.08;100.00
45275;BME280;31019;43.780;25.948;2023-08-17T06:08:36;101108.66;;;25.32;100.00
45275;BME280;31019;43.780;25.948;2023-08-17T06:11:03;101110.41;;;25.61;100.00
45275;BME280;31019;43.780;25.948;2023-08-17T06:13:31;101108.69;;;25.65;100.00
45275;BME280;31019;43.780;25.948;2023-08-17T06:15:58;101106.03;;;25.59;100.00
45275;BME280;31019;43.780;25.948;2023-08-17T06:18:25;101111.13;;;25.66;100.00
45275;BME280;31019;43.780;25.948;2023-08-17T06:20:52;101101.22;;;25.89;100.00
45275;BME280;31019;43.780;25.948;2023-08-17T06:23:20;101114.97;;;26.25;100.00
45275;BME280;31019;43.780;25.948;2023-08-17T06:25:47;101110.03;;;26.41;100.00
45275;BME280;31019;43.780;25.948;2023-08-17T06:28:14;101108.03;;;26.33;100.00
45275;BME280;31019;43.780;25.948;2023-08-17T06:30:42;101113.78;;;26.59;100.00
45275;BME280;31019;43.780;25.948;2023-08-17T06:33:09;101123.19;;;27.03;100.00
45275;BME280;31019;43.780;25.948;2023-08-17T06:35:36;101120.75;;;27.02;100.00
45275;BME280;31019;43.780;25.948;2023-08-17T06:38:03;101119.28;;;26.95;100.00
45275;BME280;31019;43.780;25.948;2023-08-17T06:40:30;101126.22;;;27.15;100.00
45275;BME280;31019;43.780;25.948;2023-08-17T06:42:57;101127.69;;;27.35;100.00
45275;BME280;31019;43.780;25.948;2023-08-17T06:45:24;101127.47;;;27.32;100.00
45275;BME280;31019;43.780;25.948;2023-08-17T06:47:52;101133.94;;;27.36;100.00
45275;BME280;31019;43.780;25.948;2023-08-17T06:50:19;101128.63;;;27.17;100.00
45275;BME280;31019;43.780;25.948;2023-08-17T06:52:46;101131.41;;;27.39;100.00
45275;BME280;31019;43.780;25.948;2023-08-17T06:55:13;101125.16;;;27.84;100.00
45275;BME280;31019;43.780;25.948;2023-08-17T06:57:41;101119.03;;;27.64;100.00
45275;BME280;31019;43.780;25.948;2023-08-17T07:00:08;101128.25;;;27.77;100.00
45275;BME280;31019;43.780;25.948;2023-08-17T07:02:36;101115.56;;;27.73;100.00
45275;BME280;31019;43.780;25.948;2023-08-17T07:05:05;101119.63;;;28.06;100.00
45275;BME280;31019;43.780;25.948;2023-08-17T07:07:33;101126.44;;;28.18;100.00
45275;BME280;31019;43.780;25.948;2023-08-17T07:10:00;101121.81;;;28.27;100.00
45275;BME280;31019;43.780;25.948;2023-08-17T07:12:27;101119.22;;;28.22;100.00
45275;BME280;31019;43.780;25.948;2023-08-17T07:14:55;101123.03;;;28.12;100.00
45275;BME280;31019;43.780;25.948;2023-08-17T07:17:24;101122.09;;;28.25;100.00
45275;BME280;31019;43.780;25.948;2023-08-17T07:19:54;101126.59;;;28.61;100.00
45275;BME280;31019;43.780;25.948;2023-08-17T07:22:26;101120.81;;;28.54;100.00
45275;BME280;31019;43.780;25.948;2023-08-17T07:24:53;101125.66;;;28.74;100.00
45275;BME280;31019;43.780;25.948;2023-08-17T07:27:19;101123.44;;;28.85;100.00
45275;BME280;31019;43.780;25.948;2023-08-17T07:29:48;101122.47;;;28.98;100.00
45275;BME280;31019;43.780;25.948;2023-08-17T07:32:15;101132.50;;;29.20;100.00
45275;BME280;31019;43.780;25.948;2023-08-17T07:34:42;101124.94;;;29.26;100.00
45275;BME280;31019;43.780;25.948;2023-08-17T07:37:09;101123.81;;;29.36;100.00
45275;BME280;31019;43.780;25.948;2023-08-17T07:39:37;101123.28;;;29.60;100.00
45275;BME280;31019;43.780;25.948;2023-08-17T07:42:04;101112.38;;;29.08;100.00
45275;BME280;31019;43.780;25.948;2023-08-17T07:44:31;101118.63;;;29.69;100.00
45275;BME280;31019;43.780;25.948;2023-08-17T07:46:59;101118.75;;;29.90;100.00
45275;BME280;31019;43.780;25.948;2023-08-17T07:49:29;101110.72;;;29.76;100.00
45275;BME280;31019;43.780;25.948;2023-08-17T07:51:55;101111.75;;;29.02;100.00
45275;BME280;31019;43.780;25.948;2023-08-17T07:54:22;101114.66;;;29.14;100.00
45275;BME280;31019;43.780;25.948;2023-08-17T07:56:51;101113.16;;;29.52;100.00
45275;BME280;31019;43.780;25.948;2023-08-17T07:59:18;101112.25;;;30.03;100.00
45275;BME280;31019;43.780;25.948;2023-08-17T08:01:44;101095.25;;;30.57;100.00
45275;BME280;31019;43.780;25.948;2023-08-17T08:04:11;101110.03;;;29.88;100.00
45275;BME280;31019;43.780;25.948;2023-08-17T08:06:38;101098.50;;;30.21;100.00
45275;BME280;31019;43.780;25.948;2023-08-17T08:09:05;101094.16;;;30.49;100.00
45275;BME280;31019;43.780;25.948;2023-08-17T08:11:32;101106.66;;;30.59;100.00
45275;BME280;31019;43.780;25.948;2023-08-17T08:14:00;101103.97;;;31.01;100.00
45275;BME280;31019;43.780;25.948;2023-08-17T08:16:27;101096.16;;;30.91;100.00
45275;BME280;31019;43.780;25.948;2023-08-17T08:18:56;101103.59;;;30.31;100.00
45275;BME280;31019;43.780;25.948;2023-08-17T08:21:22;101094.53;;;30.01;100.00
45275;BME280;31019;43.780;25.948;2023-08-17T08:23:49;101092.78;;;30.34;100.00
45275;BME280;31019;43.780;25.948;2023-08-17T08:26:16;101093.00;;;30.29;100.00
45275;BME280;31019;43.780;25.948;2023-08-17T08:28:43;101099.13;;;30.26;100.00
45275;BME280;31019;43.780;25.948;2023-08-17T08:31:11;101094.72;;;29.96;100.00
45275;BME280;31019;43.780;25.948;2023-08-17T08:33:38;101093.63;;;30.56;100.00
45275;BME280;31019;43.780;25.948;2023-08-17T08:36:05;101098.03;;;30.48;100.00
45275;BME280;31019;43.780;25.948;2023-08-17T08:38:32;101089.16;;;29.75;100.00
45275;BME280;31019;43.780;25.948;2023-08-17T08:40:59;101092.50;;;30.87;100.00
45275;BME280;31019;43.780;25.948;2023-08-17T08:43:27;101091.31;;;30.67;100.00
45275;BME280;31019;43.780;25.948;2023-08-17T08:45:54;101090.72;;;31.24;100.00
45275;BME280;31019;43.780;25.948;2023-08-17T08:48:26;101081.41;;;29.77;100.00
45275;BME280;31019;43.780;25.948;2023-08-17T08:50:55;101069.97;;;30.22;100.00
45275;BME280;31019;43.780;25.948;2023-08-17T08:53:28;101070.47;;;30.74;100.00
45275;BME280;31019;43.780;25.948;2023-08-17T08:55:59;101073.91;;;31.25;100.00
45275;BME280;31019;43.780;25.948;2023-08-17T08:58:27;101082.09;;;31.13;100.00
45275;BME280;31019;43.780;25.948;2023-08-17T09:00:57;101074.91;;;30.58;100.00
45275;BME280;31019;43.780;25.948;2023-08-17T09:03:26;101069.22;;;29.57;100.00
45275;BME280;31019;43.780;25.948;2023-08-17T09:05:55;101069.16;;;30.80;100.00
45275;BME280;31019;43.780;25.948;2023-08-17T09:08:27;101068.00;;;31.02;100.00
45275;BME280;31019;43.780;25.948;2023-08-17T09:10:54;101061.06;;;30.84;100.00
45275;BME280;31019;43.780;25.948;2023-08-17T09:13:21;101071.47;;;31.12;100.00
45275;BME280;31019;43.780;25.948;2023-08-17T09:15:48;101065.88;;;31.87;100.00
45275;BME280;31019;43.780;25.948;2023-08-17T09:18:16;101061.22;;;31.54;100.00
45275;BME280;31019;43.780;25.948;2023-08-17T09:20:45;101063.78;;;31.05;100.00
45275;BME280;31019;43.780;25.948;2023-08-17T09:23:13;101050.44;;;31.94;100.00
45275;BME280;31019;43.780;25.948;2023-08-17T09:25:42;101052.91;;;31.30;100.00
45275;BME280;31019;43.780;25.948;2023-08-17T09:28:10;101052.03;;;31.05;100.00
45275;BME280;31019;43.780;25.948;2023-08-17T09:30:54;101051.97;;;31.71;100.00
45275;BME280;31019;43.780;25.948;2023-08-17T09:33:26;101038.97;;;32.54;100.00
45275;BME280;31019;43.780;25.948;2023-08-17T09:35:55;101043.03;;;31.62;100.00
45275;BME280;31019;43.780;25.948;2023-08-17T09:38:22;101045.66;;;31.46;100.00
45275;BME280;31019;43.780;25.948;2023-08-17T09:40:49;101038.88;;;32.26;100.00
45275;BME280;31019;43.780;25.948;2023-08-17T09:43:17;101044.63;;;31.17;100.00
45275;BME280;31019;43.780;25.948;2023-08-17T09:45:46;101044.09;;;30.61;100.00
45275;BME280;31019;43.780;25.948;2023-08-17T09:48:16;101034.34;;;31.14;100.00
45275;BME280;31019;43.780;25.948;2023-08-17T09:50:44;101046.84;;;30.61;100.00
45275;BME280;31019;43.780;25.948;2023-08-17T09:53:14;101043.34;;;30.82;100.00
45275;BME280;31019;43.780;25.948;2023-08-17T09:55:41;101028.94;;;31.97;100.00
45275;BME280;31019;43.780;25.948;2023-08-17T09:58:09;101041.41;;;31.15;100.00
45275;BME280;31019;43.780;25.948;2023-08-17T10:00:42;101039.28;;;31.21;100.00
45275;BME280;31019;43.780;25.948;2023-08-17T10:03:10;101029.06;;;33.05;100.00
45275;BME280;31019;43.780;25.948;2023-08-17T10:05:40;101028.00;;;32.29;100.00
45275;BME280;31019;43.780;25.948;2023-08-17T10:08:07;101022.25;;;32.22;100.00
45275;BME280;31019;43.780;25.948;2023-08-17T10:10:40;101021.00;;;31.83;100.00
45275;BME280;31019;43.780;25.948;2023-08-17T10:13:09;101034.81;;;30.95;100.00
45275;BME280;31019;43.780;25.948;2023-08-17T10:15:38;101031.09;;;31.91;100.00
45275;BME280;31019;43.780;25.948;2023-08-17T10:18:15;101020.56;;;33.55;99.62
45275;BME280;31019;43.780;25.948;2023-08-17T10:20:51;101002.06;;;34.38;91.37
45275;BME280;31019;43.780;25.948;2023-08-17T10:23:19;101008.47;;;33.75;98.25
45275;BME280;31019;43.780;25.948;2023-08-17T10:25:50;101012.72;;;33.88;94.27
45275;BME280;31019;43.780;25.948;2023-08-17T10:28:19;101006.81;;;33.11;100.00
45275;BME280;31019;43.780;25.948;2023-08-17T10:30:46;101012.91;;;31.99;100.00
45275;BME280;31019;43.780;25.948;2023-08-17T10:33:14;101007.88;;;34.01;91.18
45275;BME280;31019;43.780;25.948;2023-08-17T10:35:42;101002.75;;;34.00;90.10
45275;BME280;31019;43.780;25.948;2023-08-17T10:38:10;101004.44;;;33.25;95.25
45275;BME280;31019;43.780;25.948;2023-08-17T10:40:40;101003.47;;;32.36;100.00
45275;BME280;31019;43.780;25.948;2023-08-17T10:43:09;101012.47;;;33.62;93.23
45275;BME280;31019;43.780;25.948;2023-08-17T10:45:37;101018.84;;;33.50;93.43
45275;BME280;31019;43.780;25.948;2023-08-17T10:48:25;101009.31;;;32.47;100.00
45275;BME280;31019;43.780;25.948;2023-08-17T10:51:01;100999.44;;;33.15;96.67
45275;BME280;31019;43.780;25.948;2023-08-17T10:53:34;101002.59;;;33.29;96.09
45275;BME280;31019;43.780;25.948;2023-08-17T10:56:06;101008.13;;;32.89;100.00
45275;BME280;31019;43.780;25.948;2023-08-17T10:58:35;100999.78;;;34.24;82.48
45275;BME280;31019;43.780;25.948;2023-08-17T11:01:02;101000.28;;;33.79;91.88
45275;BME280;31019;43.780;25.948;2023-08-17T11:03:29;100995.16;;;33.61;95.10
45275;BME280;31019;43.780;25.948;2023-08-17T11:05:56;100988.50;;;33.62;94.64
45275;BME280;31019;43.780;25.948;2023-08-17T11:08:28;100991.00;;;32.79;98.64
45275;BME280;31019;43.780;25.948;2023-08-17T11:11:01;100996.75;;;32.09;100.00
45275;BME280;31019;43.780;25.948;2023-08-17T11:13:30;100989.16;;;34.42;85.32
45275;BME280;31019;43.780;25.948;2023-08-17T11:16:00;100989.28;;;33.47;93.15
45275;BME280;31019;43.780;25.948;2023-08-17T11:18:27;100986.94;;;32.89;98.16
45275;BME280;31019;43.780;25.948;2023-08-17T11:20:54;100985.50;;;35.16;77.42
45275;BME280;31019;43.780;25.948;2023-08-17T11:23:22;100985.03;;;35.33;73.65
45275;BME280;31019;43.780;25.948;2023-08-17T11:25:52;100979.81;;;34.47;75.78
45275;BME280;31019;43.780;25.948;2023-08-17T11:28:19;100981.13;;;34.72;73.32
45275;BME280;31019;43.780;25.948;2023-08-17T11:30:56;100975.03;;;35.48;69.61
45275;BME280;31019;43.780;25.948;2023-08-17T11:33:25;100970.53;;;33.37;88.72
45275;BME280;31019;43.780;25.948;2023-08-17T11:35:54;100971.53;;;34.47;78.78
45275;BME280;31019;43.780;25.948;2023-08-17T11:38:21;100973.09;;;33.45;88.88
45275;BME280;31019;43.780;25.948;2023-08-17T11:40:48;100965.94;;;34.43;77.94
45275;BME280;31019;43.780;25.948;2023-08-17T11:43:15;100966.63;;;32.94;92.66
45275;BME280;31019;43.780;25.948;2023-08-17T11:45:42;100958.03;;;33.55;82.91
45275;BME280;31019;43.780;25.948;2023-08-17T11:48:09;100954.41;;;34.02;77.48
45275;BME280;31019;43.780;25.948;2023-08-17T11:50:38;100956.69;;;33.81;81.80
45275;BME280;31019;43.780;25.948;2023-08-17T11:53:05;100950.53;;;33.40;85.94
45275;BME280;31019;43.780;25.948;2023-08-17T11:55:32;100944.28;;;34.06;80.72
45275;BME280;31019;43.780;25.948;2023-08-17T11:57:59;100947.97;;;34.69;72.68
45275;BME280;31019;43.780;25.948;2023-08-17T12:00:34;100928.47;;;33.68;87.47
45275;BME280;31019;43.780;25.948;2023-08-17T12:03:02;100940.50;;;32.72;99.03
45275;BME280;31019;43.780;25.948;2023-08-17T12:05:31;100937.25;;;33.42;89.85
45275;BME280;31019;43.780;25.948;2023-08-17T12:08:00;100940.59;;;33.19;90.25
45275;BME280;31019;43.780;25.948;2023-08-17T12:10:27;100933.88;;;34.00;82.10
45275;BME280;31019;43.780;25.948;2023-08-17T12:12:57;100947.00;;;33.08;94.50
45275;BME280;31019;43.780;25.948;2023-08-17T12:15:32;100931.47;;;34.72;77.36
45275;BME280;31019;43.780;25.948;2023-08-17T12:18:05;100934.47;;;35.06;74.13
45275;BME280;31019;43.780;25.948;2023-08-17T12:20:34;100932.91;;;34.85;75.58
45275;BME280;31019;43.780;25.948;2023-08-17T12:23:04;100948.72;;;34.30;80.82
45275;BME280;31019;43.780;25.948;2023-08-17T12:25:31;100935.13;;;34.57;75.46
45275;BME280;31019;43.780;25.948;2023-08-17T12:27:58;100943.31;;;33.98;84.41
45275;BME280;31019;43.780;25.948;2023-08-17T12:30:28;100930.06;;;34.59;75.49
45275;BME280;31019;43.780;25.948;2023-08-17T12:32:57;100931.81;;;33.45;90.53
45275;BME280;31019;43.780;25.948;2023-08-17T12:35:26;100941.94;;;32.01;100.00